sensor_id;sensor_type;location;lat;lon;timestamp;pressure;altitude;pressure_sealevel;temperature;humidity
69405;BME280;57084;52.046;5.632;2022-09-03T00:00:04;101080;;;21.5;34.6
69405;BME280;57084;52.046;5.632;2022-09-03T00:01:00;101080;;;21.5;34.6
69405;BME280;57084;52.046;5.632;2022-09-03T00:02:01;101080;;;21.5;34.5
69405;BME280;57084;52.046;5.632;2022-09-03T00:03:01;101080;;;21.5;34.5
69405;BME280;57084;52.046;5.632;2022-09-03T00:04:01;101080;;;21.5;34.7
69405;BME280;57084;52.046;5.632;2022-09-03T00:05:02;101080;;;21.5;34.7
69405;BME280;57084;52.046;5.632;2022-09-03T00:06:02;101080;;;21.5;34.6
69405;BME280;57084;52.046;5.632;2022-09-03T00:07:01;101080;;;21.5;34.6
69405;BME280;57084;52.046;5.632;2022-09-03T00:08:01;101080;;;21.5;34.8
69405;BME280;57084;52.046;5.632;2022-09-03T00:09:00;101080;;;21.5;34.8
69405;BME280;57084;52.046;5.632;2022-09-03T00:10:01;101080;;;21.5;34.7
69405;BME280;57084;52.046;5.632;2022-09-03T00:11:00;101080;;;21.5;34.7
69405;BME280;57084;52.046;5.632;2022-09-03T00:12:01;101080;;;21.5;34.7
69405;BME280;57084;52.046;5.632;2022-09-03T00:13:00;101080;;;21.5;34.7
69405;BME280;57084;52.046;5.632;2022-09-03T00:14:02;101070;;;21.4;34.9
69405;BME280;57084;52.046;5.632;2022-09-03T00:15:01;101070;;;21.4;34.9
69405;BME280;57084;52.046;5.632;2022-09-03T00:16:00;101070;;;21.4;34.8
69405;BME280;57084;52.046;5.632;2022-09-03T00:17:01;101070;;;21.4;34.8
69405;BME280;57084;52.046;5.632;2022-09-03T00:18:01;101070;;;21.4;35.0
69405;BME280;57084;52.046;5.632;2022-09-03T00:19:00;101070;;;21.4;35.0
69405;BME280;57084;52.046;5.632;2022-09-03T00:20:00;101070;;;21.4;35.0
69405;BME280;57084;52.046;5.632;2022-09-03T00:21:01;101070;;;21.4;35.0
69405;BME280;57084;52.046;5.632;2022-09-03T00:22:02;101070;;;21.4;34.9
69405;BME280;57084;52.046;5.632;2022-09-03T00:23:02;101070;;;21.4;34.9
69405;BME280;57084;52.046;5.632;2022-09-03T00:24:00;101070;;;21.3;35.1
69405;BME280;57084;52.046;5.632;2022-09-03T00:25:01;101070;;;21.3;35.1
69405;BME280;57084;52.046;5.632;2022-09-03T00:26:02;101070;;;21.3;35.0
69405;BME280;57084;52.046;5.632;2022-09-03T00:27:00;101070;;;21.3;35.0
69405;BME280;57084;52.046;5.632;2022-09-03T00:28:01;101070;;;21.2;35.2
69405;BME280;57084;52.046;5.632;2022-09-03T00:29:01;101070;;;21.2;35.2
69405;BME280;57084;52.046;5.632;2022-09-03T00:30:00;101070;;;21.2;35.2
69405;BME280;57084;52.046;5.632;2022-09-03T00:31:10;101070;;;21.2;35.2
69405;BME280;57084;52.046;5.632;2022-09-03T00:32:02;101070;;;21.2;35.1
69405;BME280;57084;52.046;5.632;2022-09-03T00:33:00;101070;;;21.2;35.1
69405;BME280;57084;52.046;5.632;2022-09-03T00:34:01;101070;;;21.2;35.3
69405;BME280;57084;52.046;5.632;2022-09-03T00:35:01;101070;;;21.2;35.3
69405;BME280;57084;52.046;5.632;2022-09-03T00:36:03;101070;;;21.2;35.2
69405;BME280;57084;52.046;5.632;2022-09-03T00:37:00;101070;;;21.2;35.2
69405;BME280;57084;52.046;5.632;2022-09-03T00:38:00;101070;;;21.1;35.4
69405;BME280;57084;52.046;5.632;2022-09-03T00:39:00;101070;;;21.1;35.4
69405;BME280;57084;52.046;5.632;2022-09-03T00:40:00;101070;;;21.1;35.3
69405;BME280;57084;52.046;5.632;2022-09-03T00:41:03;101070;;;21.1;35.3
69405;BME280;57084;52.046;5.632;2022-09-03T00:42:03;101060;;;21.1;35.3
69405;BME280;57084;52.046;5.632;2022-09-03T00:43:01;101060;;;21.1;35.3
69405;BME280;57084;52.046;5.632;2022-09-03T00:44:04;101070;;;21.1;35.5
69405;BME280;57084;52.046;5.632;2022-09-03T00:45:02;101070;;;21.1;35.5
69405;BME280;57084;52.046;5.632;2022-09-03T00:46:02;101060;;;21.1;35.4
69405;BME280;57084;52.046;5.632;2022-09-03T00:47:01;101060;;;21.1;35.4
69405;BME280;57084;52.046;5.632;2022-09-03T00:48:03;101060;;;21.0;35.6
69405;BME280;57084;52.046;5.632;2022-09-03T00:49:06;101060;;;21.0;35.6
69405;BME280;57084;52.046;5.632;2022-09-03T00:50:02;101070;;;21.0;35.5
69405;BME280;57084;52.046;5.632;2022-09-03T00:51:04;101070;;;21.0;35.5
69405;BME280;57084;52.046;5.632;2022-09-03T00:52:02;101060;;;21.0;35.4
69405;BME280;57084;52.046;5.632;2022-09-03T00:53:02;101060;;;21.0;35.4
69405;BME280;57084;52.046;5.632;2022-09-03T00:54:02;101060;;;21.0;35.6
69405;BME280;57084;52.046;5.632;2022-09-03T00:55:02;101060;;;21.0;35.6
69405;BME280;57084;52.046;5.632;2022-09-03T00:56:03;101070;;;21.0;35.5
69405;BME280;57084;52.046;5.632;2022-09-03T00:57:03;101070;;;21.0;35.5
69405;BME280;57084;52.046;5.632;2022-09-03T00:58:05;101060;;;21.0;35.7
69405;BME280;57084;52.046;5.632;2022-09-03T00:59:03;101060;;;21.0;35.7
69405;BME280;57084;52.046;5.632;2022-09-03T01:00:03;101060;;;21.0;35.6
69405;BME280;57084;52.046;5.632;2022-09-03T01:01:00;101060;;;21.0;35.6
69405;BME280;57084;52.046;5.632;2022-09-03T01:02:02;101060;;;21.0;35.6
69405;BME280;57084;52.046;5.632;2022-09-03T01:03:02;101060;;;21.0;35.6
69405;BME280;57084;52.046;5.632;2022-09-03T01:04:02;101060;;;21.0;35.7
69405;BME280;57084;52.046;5.632;2022-09-03T01:05:01;101060;;;21.0;35.7
69405;BME280;57084;52.046;5.632;2022-09-03T01:06:04;101060;;;21.0;35.7
69405;BME280;57084;52.046;5.632;2022-09-03T01:07:01;101060;;;21.0;35.7
69405;BME280;57084;52.046;5.632;2022-09-03T01:08:03;101060;;;20.9;35.8
69405;BME280;57084;52.046;5.632;2022-09-03T01:09:02;101060;;;20.9;35.8
69405;BME280;57084;52.046;5.632;2022-09-03T01:10:02;101060;;;21.0;35.7
69405;BME280;57084;52.046;5.632;2022-09-03T01:11:01;101060;;;21.0;35.7
69405;BME280;57084;52.046;5.632;2022-09-03T01:12:01;101060;;;21.0;35.7
69405;BME280;57084;52.046;5.632;2022-09-03T01:13:00;101060;;;21.0;35.7
69405;BME280;57084;52.046;5.632;2022-09-03T01:14:02;101060;;;20.9;35.8
69405;BME280;57084;52.046;5.632;2022-09-03T01:15:02;101060;;;20.9;35.8
69405;BME280;57084;52.046;5.632;2022-09-03T01:16:02;101060;;;20.9;35.8
69405;BME280;57084;52.046;5.632;2022-09-03T01:17:00;101060;;;20.9;35.8
69405;BME280;57084;52.046;5.632;2022-09-03T01:18:02;101060;;;20.9;35.9
69405;BME280;57084;52.046;5.632;2022-09-03T01:19:01;101060;;;20.9;35.9
69405;BME280;57084;52.046;5.632;2022-09-03T01:20:02;101070;;;20.9;35.8
69405;BME280;57084;52.046;5.632;2022-09-03T01:21:06;101070;;;20.9;35.8
69405;BME280;57084;52.046;5.632;2022-09-03T01:22:05;101070;;;20.9;35.8
69405;BME280;57084;52.046;5.632;2022-09-03T01:23:05;101070;;;20.9;35.8
69405;BME280;57084;52.046;5.632;2022-09-03T01:24:04;101070;;;20.9;35.9
69405;BME280;57084;52.046;5.632;2022-09-03T01:25:04;101070;;;20.9;35.9
69405;BME280;57084;52.046;5.632;2022-09-03T01:26:02;101070;;;20.9;35.8
69405;BME280;57084;52.046;5.632;2022-09-03T01:27:04;101070;;;20.9;35.8
69405;BME280;57084;52.046;5.632;2022-09-03T01:28:09;101080;;;20.9;35.9
69405;BME280;57084;52.046;5.632;2022-09-03T01:29:02;101080;;;20.9;35.9
69405;BME280;57084;52.046;5.632;2022-09-03T01:30:02;101080;;;20.9;35.9
69405;BME280;57084;52.046;5.632;2022-09-03T01:31:01;101080;;;20.9;35.9
69405;BME280;57084;52.046;5.632;2022-09-03T01:32:01;101080;;;20.9;35.9
69405;BME280;57084;52.046;5.632;2022-09-03T01:33:01;101080;;;20.9;35.9
69405;BME280;57084;52.046;5.632;2022-09-03T01:34:02;101080;;;20.9;36.0
69405;BME280;57084;52.046;5.632;2022-09-03T01:35:01;101080;;;20.9;36.0
69405;BME280;57084;52.046;5.632;2022-09-03T01:36:02;101080;;;20.9;36.0
69405;BME280;57084;52.046;5.632;2022-09-03T01:37:02;101080;;;20.9;36.0
69405;BME280;57084;52.046;5.632;2022-09-03T01:38:02;101080;;;20.8;36.1
69405;BME280;57084;52.046;5.632;2022-09-03T01:39:00;101080;;;20.8;36.1
69405;BME280;57084;52.046;5.632;2022-09-03T01:40:02;101080;;;20.8;36.1
69405;BME280;57084;52.046;5.632;2022-09-03T01:41:03;101080;;;20.8;36.1
69405;BME280;57084;52.046;5.632;2022-09-03T01:42:01;101080;;;20.8;36.1
69405;BME280;57084;52.046;5.632;2022-09-03T01:43:03;101080;;;20.8;36.1
69405;BME280;57084;52.046;5.632;2022-09-03T01:44:01;101070;;;20.7;36.3
69405;BME280;57084;52.046;5.632;2022-09-03T01:45:18;101070;;;20.7;36.3
69405;BME280;57084;52.046;5.632;2022-09-03T01:46:00;101070;;;20.7;36.2
69405;BME280;57084;52.046;5.632;2022-09-03T01:47:01;101070;;;20.7;36.2
69405;BME280;57084;52.046;5.632;2022-09-03T01:48:03;101080;;;20.7;36.2
69405;BME280;57084;52.046;5.632;2022-09-03T01:49:00;101080;;;20.7;36.2
69405;BME280;57084;52.046;5.632;2022-09-03T01:50:02;101070;;;20.7;36.3
69405;BME280;57084;52.046;5.632;2022-09-03T01:51:02;101070;;;20.7;36.3
69405;BME280;57084;52.046;5.632;2022-09-03T01:52:02;101070;;;20.7;36.3
69405;BME280;57084;52.046;5.632;2022-09-03T01:53:02;101070;;;20.7;36.3
69405;BME280;57084;52.046;5.632;2022-09-03T01:54:05;101070;;;20.6;36.5
69405;BME280;57084;52.046;5.632;2022-09-03T01:55:02;101070;;;20.6;36.5
69405;BME280;57084;52.046;5.632;2022-09-03T01:56:05;101070;;;20.6;36.4
69405;BME280;57084;52.046;5.632;2022-09-03T01:58:01;101080;;;20.6;36.4
69405;BME280;57084;52.046;5.632;2022-09-03T01:59:02;101080;;;20.6;36.4
69405;BME280;57084;52.046;5.632;2022-09-03T02:00:00;101070;;;20.6;36.5
69405;BME280;57084;52.046;5.632;2022-09-03T02:01:00;101070;;;20.6;36.5
69405;BME280;57084;52.046;5.632;2022-09-03T02:02:01;101070;;;20.6;36.4
69405;BME280;57084;52.046;5.632;2022-09-03T02:03:00;101070;;;20.6;36.4
69405;BME280;57084;52.046;5.632;2022-09-03T02:04:00;101070;;;20.5;36.6
69405;BME280;57084;52.046;5.632;2022-09-03T02:05:01;101070;;;20.5;36.6
69405;BME280;57084;52.046;5.632;2022-09-03T02:06:00;101070;;;20.5;36.5
69405;BME280;57084;52.046;5.632;2022-09-03T02:07:00;101070;;;20.5;36.5
69405;BME280;57084;52.046;5.632;2022-09-03T02:08:01;101070;;;20.5;36.5
69405;BME280;57084;52.046;5.632;2022-09-03T02:09:00;101070;;;20.5;36.5
69405;BME280;57084;52.046;5.632;2022-09-03T02:10:00;101070;;;20.5;36.7
69405;BME280;57084;52.046;5.632;2022-09-03T02:11:00;101070;;;20.5;36.7
69405;BME280;57084;52.046;5.632;2022-09-03T02:12:01;101070;;;20.5;36.6
69405;BME280;57084;52.046;5.632;2022-09-03T02:13:00;101070;;;20.5;36.6
69405;BME280;57084;52.046;5.632;2022-09-03T02:14:00;101070;;;20.5;36.7
69405;BME280;57084;52.046;5.632;2022-09-03T02:15:00;101070;;;20.5;36.7
69405;BME280;57084;52.046;5.632;2022-09-03T02:16:02;101070;;;20.5;36.7
69405;BME280;57084;52.046;5.632;2022-09-03T02:17:01;101070;;;20.5;36.7
69405;BME280;57084;52.046;5.632;2022-09-03T02:18:00;101070;;;20.5;36.6
69405;BME280;57084;52.046;5.632;2022-09-03T02:19:00;101070;;;20.5;36.6
69405;BME280;57084;52.046;5.632;2022-09-03T02:20:01;101070;;;20.5;36.8
69405;BME280;57084;52.046;5.632;2022-09-03T02:21:00;101070;;;20.5;36.8
69405;BME280;57084;52.046;5.632;2022-09-03T02:22:00;101060;;;20.4;36.7
69405;BME280;57084;52.046;5.632;2022-09-03T02:23:00;101060;;;20.4;36.7
69405;BME280;57084;52.046;5.632;2022-09-03T02:24:00;101060;;;20.4;36.9
69405;BME280;57084;52.046;5.632;2022-09-03T02:25:00;101060;;;20.4;36.9
69405;BME280;57084;52.046;5.632;2022-09-03T02:26:00;101070;;;20.4;36.8
69405;BME280;57084;52.046;5.632;2022-09-03T02:27:00;101070;;;20.4;36.8
69405;BME280;57084;52.046;5.632;2022-09-03T02:28:00;101070;;;20.4;36.8
69405;BME280;57084;52.046;5.632;2022-09-03T02:29:00;101070;;;20.4;36.8
69405;BME280;57084;52.046;5.632;2022-09-03T02:30:00;101070;;;20.3;37.0
69405;BME280;57084;52.046;5.632;2022-09-03T02:31:00;101070;;;20.3;37.0
69405;BME280;57084;52.046;5.632;2022-09-03T02:32:00;101060;;;20.3;36.9
69405;BME280;57084;52.046;5.632;2022-09-03T02:33:00;101060;;;20.3;36.9
69405;BME280;57084;52.046;5.632;2022-09-03T02:34:00;101070;;;20.3;37.1
69405;BME280;57084;52.046;5.632;2022-09-03T02:35:00;101070;;;20.3;37.1
69405;BME280;57084;52.046;5.632;2022-09-03T02:36:00;101060;;;20.3;37.0
69405;BME280;57084;52.046;5.632;2022-09-03T02:37:00;101060;;;20.3;37.0
69405;BME280;57084;52.046;5.632;2022-09-03T02:38:07;101060;;;20.3;37.0
69405;BME280;57084;52.046;5.632;2022-09-03T02:39:00;101060;;;20.3;37.0
69405;BME280;57084;52.046;5.632;2022-09-03T02:40:00;101070;;;20.3;37.1
69405;BME280;57084;52.046;5.632;2022-09-03T02:41:00;101070;;;20.3;37.1
69405;BME280;57084;52.046;5.632;2022-09-03T02:42:00;101060;;;20.3;37.0
69405;BME280;57084;52.046;5.632;2022-09-03T02:43:00;101060;;;20.3;37.0
69405;BME280;57084;52.046;5.632;2022-09-03T02:44:01;101070;;;20.2;37.2
69405;BME280;57084;52.046;5.632;2022-09-03T02:45:03;101070;;;20.2;37.2
69405;BME280;57084;52.046;5.632;2022-09-03T02:46:00;101060;;;20.2;37.1
69405;BME280;57084;52.046;5.632;2022-09-03T02:47:00;101060;;;20.2;37.1
69405;BME280;57084;52.046;5.632;2022-09-03T02:48:00;101060;;;20.2;37.1
69405;BME280;57084;52.046;5.632;2022-09-03T02:49:00;101060;;;20.2;37.1
69405;BME280;57084;52.046;5.632;2022-09-03T02:50:00;101060;;;20.2;37.2
69405;BME280;57084;52.046;5.632;2022-09-03T02:51:00;101060;;;20.2;37.2
69405;BME280;57084;52.046;5.632;2022-09-03T02:52:00;101060;;;20.2;37.2
69405;BME280;57084;52.046;5.632;2022-09-03T02:53:00;101060;;;20.2;37.2
69405;BME280;57084;52.046;5.632;2022-09-03T02:54:00;101060;;;20.2;37.3
69405;BME280;57084;52.046;5.632;2022-09-03T02:55:00;101060;;;20.2;37.3
69405;BME280;57084;52.046;5.632;2022-09-03T02:56:00;101060;;;20.2;37.3
69405;BME280;57084;52.046;5.632;2022-09-03T02:57:00;101060;;;20.2;37.3
69405;BME280;57084;52.046;5.632;2022-09-03T02:58:00;101050;;;20.2;37.2
69405;BME280;57084;52.046;5.632;2022-09-03T02:59:00;101050;;;20.2;37.2
69405;BME280;57084;52.046;5.632;2022-09-03T03:00:00;101050;;;20.2;37.3
69405;BME280;57084;52.046;5.632;2022-09-03T03:01:00;101050;;;20.2;37.3
69405;BME280;57084;52.046;5.632;2022-09-03T03:02:00;101050;;;20.2;37.3
69405;BME280;57084;52.046;5.632;2022-09-03T03:03:00;101050;;;20.2;37.3
69405;BME280;57084;52.046;5.632;2022-09-03T03:04:00;101050;;;20.1;37.4
69405;BME280;57084;52.046;5.632;2022-09-03T03:05:00;101050;;;20.1;37.4
69405;BME280;57084;52.046;5.632;2022-09-03T03:06:00;101050;;;20.1;37.4
69405;BME280;57084;52.046;5.632;2022-09-03T03:07:00;101050;;;20.1;37.4
69405;BME280;57084;52.046;5.632;2022-09-03T03:08:00;101050;;;20.1;37.3
69405;BME280;57084;52.046;5.632;2022-09-03T03:09:00;101050;;;20.1;37.3
69405;BME280;57084;52.046;5.632;2022-09-03T03:10:00;101060;;;20.1;37.5
69405;BME280;57084;52.046;5.632;2022-09-03T03:11:00;101060;;;20.1;37.5
69405;BME280;57084;52.046;5.632;2022-09-03T03:12:00;101050;;;20.1;37.4
69405;BME280;57084;52.046;5.632;2022-09-03T03:13:00;101050;;;20.1;37.4
69405;BME280;57084;52.046;5.632;2022-09-03T03:14:00;101050;;;20.0;37.6
69405;BME280;57084;52.046;5.632;2022-09-03T03:15:00;101050;;;20.0;37.6
69405;BME280;57084;52.046;5.632;2022-09-03T03:16:00;101050;;;20.1;37.5
69405;BME280;57084;52.046;5.632;2022-09-03T03:17:00;101050;;;20.1;37.5
69405;BME280;57084;52.046;5.632;2022-09-03T03:18:00;101050;;;20.1;37.5
69405;BME280;57084;52.046;5.632;2022-09-03T03:19:00;101050;;;20.1;37.5
69405;BME280;57084;52.046;5.632;2022-09-03T03:20:00;101050;;;20.0;37.6
69405;BME280;57084;52.046;5.632;2022-09-03T03:21:03;101050;;;20.0;37.6
69405;BME280;57084;52.046;5.632;2022-09-03T03:22:00;101040;;;20.0;37.6
69405;BME280;57084;52.046;5.632;2022-09-03T03:23:00;101040;;;20.0;37.6
69405;BME280;57084;52.046;5.632;2022-09-03T03:24:00;101040;;;20.0;37.7
69405;BME280;57084;52.046;5.632;2022-09-03T03:25:00;101040;;;20.0;37.7
69405;BME280;57084;52.046;5.632;2022-09-03T03:26:00;101050;;;20.0;37.7
69405;BME280;57084;52.046;5.632;2022-09-03T03:27:00;101050;;;20.0;37.7
69405;BME280;57084;52.046;5.632;2022-09-03T03:28:00;101050;;;20.0;37.6
69405;BME280;57084;52.046;5.632;2022-09-03T03:29:00;101050;;;20.0;37.6
69405;BME280;57084;52.046;5.632;2022-09-03T03:30:00;101050;;;19.9;37.8
69405;BME280;57084;52.046;5.632;2022-09-03T03:31:04;101050;;;19.9;37.8
69405;BME280;57084;52.046;5.632;2022-09-03T03:32:00;101060;;;19.9;37.7
69405;BME280;57084;52.046;5.632;2022-09-03T03:33:00;101060;;;19.9;37.7
69405;BME280;57084;52.046;5.632;2022-09-03T03:34:00;101060;;;19.9;37.8
69405;BME280;57084;52.046;5.632;2022-09-03T03:35:00;101060;;;19.9;37.8
69405;BME280;57084;52.046;5.632;2022-09-03T03:36:03;101050;;;19.9;37.9
69405;BME280;57084;52.046;5.632;2022-09-03T03:37:00;101050;;;19.9;37.9
69405;BME280;57084;52.046;5.632;2022-09-03T03:38:00;101050;;;19.9;37.8
69405;BME280;57084;52.046;5.632;2022-09-03T03:39:00;101050;;;19.9;37.8
69405;BME280;57084;52.046;5.632;2022-09-03T03:40:00;101050;;;19.8;38.0
69405;BME280;57084;52.046;5.632;2022-09-03T03:41:05;101050;;;19.8;38.0
69405;BME280;57084;52.046;5.632;2022-09-03T03:42:00;101050;;;19.8;37.9
69405;BME280;57084;52.046;5.632;2022-09-03T03:43:00;101050;;;19.8;37.9
69405;BME280;57084;52.046;5.632;2022-09-03T03:44:00;101050;;;19.8;37.9
69405;BME280;57084;52.046;5.632;2022-09-03T03:45:00;101050;;;19.8;37.9
69405;BME280;57084;52.046;5.632;2022-09-03T03:46:00;101040;;;19.8;38.0
69405;BME280;57084;52.046;5.632;2022-09-03T03:47:01;101040;;;19.8;38.0
69405;BME280;57084;52.046;5.632;2022-09-03T03:48:00;101050;;;19.8;37.9
69405;BME280;57084;52.046;5.632;2022-09-03T03:49:00;101050;;;19.8;37.9
69405;BME280;57084;52.046;5.632;2022-09-03T03:50:00;101050;;;19.8;38.1
69405;BME280;57084;52.046;5.632;2022-09-03T03:51:00;101050;;;19.8;38.1
69405;BME280;57084;52.046;5.632;2022-09-03T03:52:00;101050;;;19.8;38.1
69405;BME280;57084;52.046;5.632;2022-09-03T03:53:00;101050;;;19.8;38.1
69405;BME280;57084;52.046;5.632;2022-09-03T03:54:00;101040;;;19.7;38.1
69405;BME280;57084;52.046;5.632;2022-09-03T03:55:00;101040;;;19.7;38.1
69405;BME280;57084;52.046;5.632;2022-09-03T03:56:00;101050;;;19.7;38.2
69405;BME280;57084;52.046;5.632;2022-09-03T03:57:00;101050;;;19.7;38.2
69405;BME280;57084;52.046;5.632;2022-09-03T03:58:00;101050;;;19.7;38.2
69405;BME280;57084;52.046;5.632;2022-09-03T03:59:00;101050;;;19.7;38.2
69405;BME280;57084;52.046;5.632;2022-09-03T04:00:00;101050;;;19.6;38.4
69405;BME280;57084;52.046;5.632;2022-09-03T04:01:03;101050;;;19.6;38.4
69405;BME280;57084;52.046;5.632;2022-09-03T04:02:00;101050;;;19.6;38.3
69405;BME280;57084;52.046;5.632;2022-09-03T04:03:00;101050;;;19.6;38.3
69405;BME280;57084;52.046;5.632;2022-09-03T04:04:00;101040;;;19.6;38.2
69405;BME280;57084;52.046;5.632;2022-09-03T04:05:00;101040;;;19.6;38.2
69405;BME280;57084;52.046;5.632;2022-09-03T04:06:00;101040;;;19.6;38.3
69405;BME280;57084;52.046;5.632;2022-09-03T04:07:00;101040;;;19.6;38.3
69405;BME280;57084;52.046;5.632;2022-09-03T04:08:00;101040;;;19.6;38.3
69405;BME280;57084;52.046;5.632;2022-09-03T04:09:00;101040;;;19.6;38.3
69405;BME280;57084;52.046;5.632;2022-09-03T04:10:00;101040;;;19.6;38.5
69405;BME280;57084;52.046;5.632;2022-09-03T04:11:00;101040;;;19.6;38.5
69405;BME280;57084;52.046;5.632;2022-09-03T04:12:00;101040;;;19.6;38.4
69405;BME280;57084;52.046;5.632;2022-09-03T04:13:00;101040;;;19.6;38.4
69405;BME280;57084;52.046;5.632;2022-09-03T04:14:01;101050;;;19.6;38.3
69405;BME280;57084;52.046;5.632;2022-09-03T04:15:00;101050;;;19.6;38.3
69405;BME280;57084;52.046;5.632;2022-09-03T04:16:00;101040;;;19.5;38.5
69405;BME280;57084;52.046;5.632;2022-09-03T04:17:00;101040;;;19.5;38.5
69405;BME280;57084;52.046;5.632;2022-09-03T04:18:00;101040;;;19.5;38.5
69405;BME280;57084;52.046;5.632;2022-09-03T04:19:00;101040;;;19.5;38.5
69405;BME280;57084;52.046;5.632;2022-09-03T04:20:00;101040;;;19.5;38.6
69405;BME280;57084;52.046;5.632;2022-09-03T04:21:00;101040;;;19.5;38.6
69405;BME280;57084;52.046;5.632;2022-09-03T04:22:00;101050;;;19.5;38.5
69405;BME280;57084;52.046;5.632;2022-09-03T04:23:00;101050;;;19.5;38.5
69405;BME280;57084;52.046;5.632;2022-09-03T04:24:00;101050;;;19.5;38.4
69405;BME280;57084;52.046;5.632;2022-09-03T04:25:00;101050;;;19.5;38.4
69405;BME280;57084;52.046;5.632;2022-09-03T04:26:00;101050;;;19.5;38.6
69405;BME280;57084;52.046;5.632;2022-09-03T04:27:00;101050;;;19.5;38.6
69405;BME280;57084;52.046;5.632;2022-09-03T04:28:00;101050;;;19.5;38.5
69405;BME280;57084;52.046;5.632;2022-09-03T04:29:01;101050;;;19.5;38.5
69405;BME280;57084;52.046;5.632;2022-09-03T04:30:00;101050;;;19.5;38.7
69405;BME280;57084;52.046;5.632;2022-09-03T04:31:00;101050;;;19.5;38.7
69405;BME280;57084;52.046;5.632;2022-09-03T04:32:00;101050;;;19.5;38.6
69405;BME280;57084;52.046;5.632;2022-09-03T04:33:00;101050;;;19.5;38.6
69405;BME280;57084;52.046;5.632;2022-09-03T04:34:00;101050;;;19.5;38.5
69405;BME280;57084;52.046;5.632;2022-09-03T04:35:00;101050;;;19.5;38.5
69405;BME280;57084;52.046;5.632;2022-09-03T04:36:01;101050;;;19.4;38.7
69405;BME280;57084;52.046;5.632;2022-09-03T04:37:00;101050;;;19.4;38.7
69405;BME280;57084;52.046;5.632;2022-09-03T04:38:00;101050;;;19.4;38.6
69405;BME280;57084;52.046;5.632;2022-09-03T04:39:00;101050;;;19.4;38.6
69405;BME280;57084;52.046;5.632;2022-09-03T04:40:00;101050;;;19.4;38.8
69405;BME280;57084;52.046;5.632;2022-09-03T04:41:00;101050;;;19.4;38.8
69405;BME280;57084;52.046;5.632;2022-09-03T04:42:00;101040;;;19.4;38.8
69405;BME280;57084;52.046;5.632;2022-09-03T04:43:00;101040;;;19.4;38.8
69405;BME280;57084;52.046;5.632;2022-09-03T04:44:00;101040;;;19.4;38.8
69405;BME280;57084;52.046;5.632;2022-09-03T04:45:00;101040;;;19.4;38.8
69405;BME280;57084;52.046;5.632;2022-09-03T04:46:00;101040;;;19.3;38.9
69405;BME280;57084;52.046;5.632;2022-09-03T04:47:00;101040;;;19.3;38.9
69405;BME280;57084;52.046;5.632;2022-09-03T04:48:00;101040;;;19.3;38.9
69405;BME280;57084;52.046;5.632;2022-09-03T04:49:00;101040;;;19.3;38.9
69405;BME280;57084;52.046;5.632;2022-09-03T04:50:00;101040;;;19.3;39.1
69405;BME280;57084;52.046;5.632;2022-09-03T04:51:00;101040;;;19.3;39.1
69405;BME280;57084;52.046;5.632;2022-09-03T04:52:00;101040;;;19.3;39.0
69405;BME280;57084;52.046;5.632;2022-09-03T04:53:00;101040;;;19.3;39.0
69405;BME280;57084;52.046;5.632;2022-09-03T04:54:00;101040;;;19.3;38.9
69405;BME280;57084;52.046;5.632;2022-09-03T04:55:00;101040;;;19.3;38.9
69405;BME280;57084;52.046;5.632;2022-09-03T04:56:00;101040;;;19.2;39.1
69405;BME280;57084;52.046;5.632;2022-09-03T04:57:00;101040;;;19.2;39.1
69405;BME280;57084;52.046;5.632;2022-09-03T04:58:00;101040;;;19.2;39.0
69405;BME280;57084;52.046;5.632;2022-09-03T04:59:00;101040;;;19.2;39.0
69405;BME280;57084;52.046;5.632;2022-09-03T05:00:00;101040;;;19.2;39.2
69405;BME280;57084;52.046;5.632;2022-09-03T05:01:05;101040;;;19.2;39.2
69405;BME280;57084;52.046;5.632;2022-09-03T05:02:00;101040;;;19.2;39.1
69405;BME280;57084;52.046;5.632;2022-09-03T05:03:00;101040;;;19.2;39.1
69405;BME280;57084;52.046;5.632;2022-09-03T05:04:00;101040;;;19.2;39.0
69405;BME280;57084;52.046;5.632;2022-09-03T05:05:00;101040;;;19.2;39.0
69405;BME280;57084;52.046;5.632;2022-09-03T05:06:00;101040;;;19.2;39.2
69405;BME280;57084;52.046;5.632;2022-09-03T05:07:00;101040;;;19.2;39.2
69405;BME280;57084;52.046;5.632;2022-09-03T05:08:00;101050;;;19.2;39.1
69405;BME280;57084;52.046;5.632;2022-09-03T05:09:00;101050;;;19.2;39.1
69405;BME280;57084;52.046;5.632;2022-09-03T05:10:00;101050;;;19.1;39.3
69405;BME280;57084;52.046;5.632;2022-09-03T05:11:00;101050;;;19.1;39.3
69405;BME280;57084;52.046;5.632;2022-09-03T05:12:00;101050;;;19.1;39.2
69405;BME280;57084;52.046;5.632;2022-09-03T05:13:00;101050;;;19.1;39.2
69405;BME280;57084;52.046;5.632;2022-09-03T05:14:00;101050;;;19.2;39.1
69405;BME280;57084;52.046;5.632;2022-09-03T05:15:00;101050;;;19.2;39.1
69405;BME280;57084;52.046;5.632;2022-09-03T05:16:00;101050;;;19.1;39.3
69405;BME280;57084;52.046;5.632;2022-09-03T05:17:00;101050;;;19.1;39.3
69405;BME280;57084;52.046;5.632;2022-09-03T05:18:00;101050;;;19.1;39.2
69405;BME280;57084;52.046;5.632;2022-09-03T05:19:00;101050;;;19.1;39.2
69405;BME280;57084;52.046;5.632;2022-09-03T05:20:00;101050;;;19.1;39.3
69405;BME280;57084;52.046;5.632;2022-09-03T05:21:00;101050;;;19.1;39.3
69405;BME280;57084;52.046;5.632;2022-09-03T05:22:00;101050;;;19.1;39.3
69405;BME280;57084;52.046;5.632;2022-09-03T05:23:00;101050;;;19.1;39.3
69405;BME280;57084;52.046;5.632;2022-09-03T05:24:00;101050;;;19.1;39.2
69405;BME280;57084;52.046;5.632;2022-09-03T05:25:00;101050;;;19.1;39.2
69405;BME280;57084;52.046;5.632;2022-09-03T05:26:01;101050;;;19.1;39.4
69405;BME280;57084;52.046;5.632;2022-09-03T05:27:00;101050;;;19.1;39.4
69405;BME280;57084;52.046;5.632;2022-09-03T05:28:00;101050;;;19.1;39.3
69405;BME280;57084;52.046;5.632;2022-09-03T05:29:00;101050;;;19.1;39.3
69405;BME280;57084;52.046;5.632;2022-09-03T05:30:00;101050;;;19.1;39.4
69405;BME280;57084;52.046;5.632;2022-09-03T05:31:00;101050;;;19.1;39.4
69405;BME280;57084;52.046;5.632;2022-09-03T05:32:00;101050;;;19.1;39.4
69405;BME280;57084;52.046;5.632;2022-09-03T05:33:00;101050;;;19.1;39.4
69405;BME280;57084;52.046;5.632;2022-09-03T05:34:00;101050;;;19.1;39.3
69405;BME280;57084;52.046;5.632;2022-09-03T05:35:00;101050;;;19.1;39.3
69405;BME280;57084;52.046;5.632;2022-09-03T05:36:00;101050;;;19.1;39.5